Time;durP1;ratioP1;P1;durP2;ratioP2;P2;SDS_P1;SDS_P2;PMS_P1;PMS_P2;Temp;Humidity;BMP_temperature;BMP_pressure;BME280_temperature;BME280_humidity;BME280_pressure;Samples;Min_cycle;Max_cycle;Signal;HPM_P1;HPM_P2
2023/06/18 00:02:16;;;;;;;3.72;3.15;;;26.90;38.90;;;;;;5053743;28;20402;-74
2023/06/18 00:04:42;;;;;;;4.00;2.78;;;26.90;38.90;;;;;;5054640;28;20402;-74
2023/06/18 00:07:08;;;;;;;4.45;3.20;;;26.90;39.00;;;;;;5037863;28;20033;-74
2023/06/18 00:09:33;;;;;;;3.85;3.00;;;26.80;39.00;;;;;;5053957;28;20119;-74
2023/06/18 00:11:59;;;;;;;3.78;3.10;;;26.80;39.00;;;;;;5055191;28;20059;-74
2023/06/18 00:14:25;;;;;;;4.60;2.75;;;26.80;39.00;;;;;;5055092;28;20041;-74
2023/06/18 00:16:53;;;;;;;4.07;3.17;;;26.80;39.10;;;;;;5038398;28;20378;-73
2023/06/18 00:19:19;;;;;;;4.00;2.92;;;26.80;39.20;;;;;;5037648;28;20044;-74
2023/06/18 00:21:46;;;;;;;4.18;3.00;;;26.70;39.10;;;;;;5054306;28;20478;-74
2023/06/18 00:24:11;;;;;;;4.05;2.92;;;26.70;39.20;;;;;;5055467;28;20040;-75
2023/06/18 00:26:37;;;;;;;3.78;2.92;;;26.70;39.30;;;;;;5053873;28;20474;-74
2023/06/18 00:29:03;;;;;;;3.58;2.65;;;26.70;39.30;;;;;;5053580;28;20040;-74
2023/06/18 00:31:32;;;;;;;4.30;2.95;;;26.60;39.30;;;;;;5037001;28;20398;-76
2023/06/18 00:34:05;;;;;;;4.78;3.17;;;26.60;39.30;;;;;;5054636;28;20037;-74
2023/06/18 00:36:31;;;;;;;5.10;3.33;;;26.60;39.40;;;;;;5037208;28;20029;-74
2023/06/18 00:38:57;;;;;;;4.38;3.17;;;26.60;39.40;;;;;;5054753;28;20032;-74
2023/06/18 00:41:27;;;;;;;4.68;2.65;;;26.60;39.50;;;;;;5037003;28;20037;-75
2023/06/18 00:43:53;;;;;;;3.90;3.10;;;26.60;39.50;;;;;;5053629;28;20171;-74
2023/06/18 00:46:21;;;;;;;3.88;2.92;;;26.50;39.50;;;;;;5036859;28;20135;-75
2023/06/18 00:48:47;;;;;;;4.45;3.40;;;26.50;39.50;;;;;;5055007;28;20052;-73
2023/06/18 00:51:16;;;;;;;3.85;2.80;;;26.50;39.60;;;;;;5019946;28;20140;-74
2023/06/18 00:53:42;;;;;;;4.00;2.95;;;26.50;39.60;;;;;;5054619;28;20044;-74
2023/06/18 00:56:09;;;;;;;3.42;2.80;;;26.50;39.60;;;;;;5054299;28;20137;-74
2023/06/18 00:58:35;;;;;;;3.33;2.78;;;26.40;39.70;;;;;;5054492;28;20474;-74
2023/06/18 01:01:02;;;;;;;4.15;3.10;;;26.40;39.70;;;;;;5054467;28;20033;-75
2023/06/18 01:03:28;;;;;;;4.07;3.05;;;26.40;39.70;;;;;;5036669;28;20025;-74
2023/06/18 01:06:01;;;;;;;3.63;2.83;;;26.40;39.80;;;;;;5036702;28;20033;-74
2023/06/18 01:08:28;;;;;;;4.25;3.15;;;26.30;39.80;;;;;;5054347;28;20025;-75
2023/06/18 01:11:04;;;;;;;3.88;2.92;;;26.30;39.80;;;;;;5036236;28;20029;-74
2023/06/18 01:13:33;;;;;;;3.67;2.58;;;26.30;39.90;;;;;;5036156;28;20035;-74
2023/06/18 01:16:05;;;;;;;3.40;2.75;;;26.30;39.90;;;;;;5036390;28;20029;-74
2023/06/18 01:18:36;;;;;;;4.10;3.00;;;26.30;40.00;;;;;;5054027;28;20462;-74
2023/06/18 01:21:09;;;;;;;3.67;2.72;;;26.20;39.90;;;;;;5052593;28;20325;-76
2023/06/18 01:24:04;;;;;;;3.55;2.60;;;26.20;39.90;;;;;;5053305;28;20151;-74
2023/06/18 01:26:31;;;;;;;3.05;2.40;;;26.10;39.90;;;;;;5052184;28;20098;-74
2023/06/18 01:29:00;;;;;;;4.25;3.05;;;26.10;39.90;;;;;;5035935;28;20028;-75
2023/06/18 01:31:34;;;;;;;4.05;3.10;;;26.10;40.00;;;;;;5052522;28;20037;-74
2023/06/18 01:34:01;;;;;;;3.77;2.70;;;26.10;40.00;;;;;;5052658;28;20076;-76
2023/06/18 01:36:37;;;;;;;3.20;2.50;;;26.10;40.00;;;;;;5035810;28;20044;-74
2023/06/18 01:39:26;;;;;;;3.97;2.90;;;26.10;40.10;;;;;;5052573;28;20122;-75
2023/06/18 01:42:00;;;;;;;4.03;3.00;;;26.00;40.10;;;;;;5052498;28;20025;-74
2023/06/18 01:44:29;;;;;;;4.38;3.03;;;26.00;40.10;;;;;;5052917;28;20028;-74
2023/06/18 01:46:58;;;;;;;3.67;2.90;;;26.00;40.20;;;;;;5052997;28;20090;-75
2023/06/18 01:49:24;;;;;;;4.03;2.65;;;26.00;40.30;;;;;;5051675;28;20037;-75
2023/06/18 01:51:52;;;;;;;3.47;2.80;;;25.90;40.20;;;;;;5051790;28;20083;-74
2023/06/18 01:54:20;;;;;;;3.45;2.60;;;25.90;40.30;;;;;;5052277;28;20469;-74
2023/06/18 01:56:46;;;;;;;3.65;2.65;;;25.90;40.30;;;;;;5053192;28;20390;-75
2023/06/18 01:59:13;;;;;;;5.10;3.42;;;25.80;40.30;;;;;;5035685;28;20029;-74
2023/06/18 02:01:42;;;;;;;4.68;3.08;;;25.80;40.30;;;;;;5051682;28;20036;-74
2023/06/18 02:04:07;;;;;;;4.00;2.85;;;25.80;40.30;;;;;;5035539;28;20375;-74
2023/06/18 02:06:33;;;;;;;3.58;2.65;;;25.80;40.30;;;;;;5068297;28;20029;-74
2023/06/18 02:08:59;;;;;;;3.47;2.75;;;25.70;40.30;;;;;;5051430;28;20516;-74
2023/06/18 02:11:25;;;;;;;3.63;2.70;;;25.70;40.40;;;;;;5051659;28;20067;-74
2023/06/18 02:13:51;;;;;;;4.20;2.75;;;25.70;40.40;;;;;;5051706;28;20029;-75
2023/06/18 02:16:17;;;;;;;5.32;2.95;;;25.70;40.40;;;;;;5035784;28;20029;-74
2023/06/18 02:18:43;;;;;;;3.75;2.80;;;25.70;40.50;;;;;;5035193;28;20478;-74
2023/06/18 02:21:09;;;;;;;3.97;2.83;;;25.70;40.50;;;;;;5035291;28;20114;-74
2023/06/18 02:23:34;;;;;;;3.10;2.50;;;25.60;40.40;;;;;;5051723;28;20071;-76
2023/06/18 02:26:01;;;;;;;3.70;2.90;;;25.60;40.50;;;;;;5034504;28;20040;-76
2023/06/18 02:28:27;;;;;;;3.42;2.80;;;25.60;40.50;;;;;;5053635;28;20518;-74
2023/06/18 02:30:55;;;;;;;4.07;2.75;;;25.50;40.50;;;;;;5053477;28;20170;-74
2023/06/18 02:33:22;;;;;;;4.10;2.97;;;25.50;40.60;;;;;;5051826;28;20059;-75
2023/06/18 02:35:49;;;;;;;4.15;2.70;;;25.50;40.60;;;;;;5051751;28;20474;-74
2023/06/18 02:38:14;;;;;;;3.63;2.70;;;25.50;41.30;;;;;;5053526;28;20029;-74
2023/06/18 02:40:40;;;;;;;4.00;3.00;;;25.40;40.60;;;;;;5052104;28;20048;-73
2023/06/18 02:43:06;;;;;;;3.45;2.63;;;25.40;40.70;;;;;;5019466;28;20037;-75
2023/06/18 02:45:32;;;;;;;4.05;2.92;;;25.40;40.70;;;;;;5051771;28;20033;-74
2023/06/18 02:47:58;;;;;;;3.95;2.92;;;25.40;40.80;;;;;;5051736;28;20033;-74
2023/06/18 02:50:24;;;;;;;3.95;2.83;;;25.40;40.80;;;;;;5052013;28;20123;-73
2023/06/18 02:52:51;;;;;;;4.00;3.00;;;25.30;40.80;;;;;;5018567;28;20060;-73
2023/06/18 02:55:16;;;;;;;3.80;2.80;;;25.30;40.90;;;;;;5018542;28;20033;-73
2023/06/18 02:57:43;;;;;;;4.38;3.05;;;25.30;41.00;;;;;;5052043;28;20033;-73
2023/06/18 03:00:11;;;;;;;3.95;3.13;;;25.30;41.00;;;;;;5034693;28;20510;-75
2023/06/18 03:02:44;;;;;;;3.75;2.75;;;25.20;41.00;;;;;;5051647;28;20040;-73
2023/06/18 03:05:17;;;;;;;4.00;2.90;;;25.20;41.00;;;;;;5052202;28;20021;-73
2023/06/18 03:07:43;;;;;;;3.25;2.63;;;25.20;41.00;;;;;;5035660;28;20040;-74
2023/06/18 03:10:11;;;;;;;3.75;2.88;;;25.10;41.00;;;;;;5035369;28;20037;-73
2023/06/18 03:12:37;;;;;;;4.68;2.80;;;25.10;41.10;;;;;;5018531;28;20033;-73
2023/06/18 03:15:13;;;;;;;4.10;2.92;;;25.10;41.10;;;;;;5036499;28;20462;-73
2023/06/18 03:17:39;;;;;;;4.10;3.08;;;25.10;41.10;;;;;;5051846;28;20127;-73
2023/06/18 03:20:07;;;;;;;4.40;3.13;;;25.10;41.20;;;;;;5034544;28;20032;-74
2023/06/18 03:22:33;;;;;;;3.75;2.90;;;25.00;41.20;;;;;;5034901;28;20036;-73
2023/06/18 03:25:00;;;;;;;5.22;2.72;;;25.00;41.30;;;;;;5051087;28;20025;-73
2023/06/18 03:27:27;;;;;;;4.82;3.10;;;24.90;41.30;;;;;;5035768;28;20043;-73
2023/06/18 03:29:55;;;;;;;3.75;2.95;;;24.90;41.30;;;;;;5052068;28;20049;-74
2023/06/18 03:32:22;;;;;;;4.28;3.10;;;24.90;41.40;;;;;;5035631;28;20033;-73
2023/06/18 03:34:48;;;;;;;4.07;3.03;;;24.90;41.50;;;;;;5035387;28;20029;-74
2023/06/18 03:37:17;;;;;;;4.10;2.85;;;24.80;41.50;;;;;;5037755;28;20108;-75
2023/06/18 03:39:44;;;;;;;3.78;2.97;;;24.80;41.50;;;;;;5038885;28;20029;-74
2023/06/18 03:42:12;;;;;;;3.78;3.03;;;24.80;42.20;;;;;;5022607;28;20029;-74
2023/06/18 03:44:38;;;;;;;3.95;2.92;;;24.80;41.60;;;;;;5055924;28;20094;-74
2023/06/18 03:47:04;;;;;;;4.03;3.05;;;24.70;41.50;;;;;;5054623;28;20120;-74
2023/06/18 03:49:30;;;;;;;4.70;3.42;;;24.80;41.70;;;;;;5055047;28;20032;-73
2023/06/18 03:51:56;;;;;;;3.88;3.03;;;24.70;41.70;;;;;;5054059;28;20417;-73
2023/06/18 03:54:24;;;;;;;5.22;3.33;;;24.70;41.70;;;;;;5038456;28;20033;-74
2023/06/18 03:56:51;;;;;;;3.80;2.92;;;24.70;41.80;;;;;;5056046;28;20078;-73
2023/06/18 03:59:17;;;;;;;4.72;3.25;;;24.60;41.90;;;;;;5055494;28;20033;-73
2023/06/18 04:01:43;;;;;;;3.58;2.88;;;24.60;41.90;;;;;;5054750;28;20039;-73
2023/06/18 04:04:09;;;;;;;4.63;3.30;;;24.60;42.00;;;;;;5054366;28;20118;-73
2023/06/18 04:06:35;;;;;;;4.80;3.40;;;24.60;42.10;;;;;;5055073;28;20377;-73
2023/06/18 04:09:01;;;;;;;3.65;2.80;;;24.60;42.20;;;;;;5054568;28;20063;-73
2023/06/18 04:11:27;;;;;;;4.43;3.22;;;24.50;42.20;;;;;;5055742;28;20064;-73
2023/06/18 04:13:52;;;;;;;4.13;3.05;;;24.50;42.20;;;;;;5037757;28;20037;-74
2023/06/18 04:16:18;;;;;;;3.88;2.85;;;24.50;42.30;;;;;;5053985;28;20545;-74
2023/06/18 04:18:44;;;;;;;3.45;2.70;;;24.50;42.30;;;;;;5053717;28;20056;-73
2023/06/18 04:21:10;;;;;;;4.22;3.05;;;24.40;43.00;;;;;;5053767;28;20132;-73
2023/06/18 04:23:36;;;;;;;4.28;3.25;;;24.40;42.40;;;;;;5054114;28;20111;-73
2023/06/18 04:26:02;;;;;;;4.03;3.10;;;24.40;42.60;;;;;;5053799;28;20033;-74
2023/06/18 04:28:27;;;;;;;3.90;3.03;;;24.40;42.60;;;;;;5037807;28;20406;-73
2023/06/18 04:30:53;;;;;;;4.38;3.33;;;24.40;42.60;;;;;;5037188;28;20385;-73
2023/06/18 04:33:21;;;;;;;4.47;3.40;;;24.40;42.70;;;;;;5037960;28;20078;-73
2023/06/18 04:35:47;;;;;;;3.90;3.00;;;24.30;42.80;;;;;;5054574;28;20041;-73
2023/06/18 04:38:13;;;;;;;4.53;3.42;;;24.30;42.80;;;;;;5036930;28;20041;-76
2023/06/18 04:40:41;;;;;;;5.65;3.25;;;24.30;42.80;;;;;;5053719;28;20043;-73
2023/06/18 04:43:07;;;;;;;4.43;3.20;;;24.40;42.90;;;;;;5054867;28;20369;-73
2023/06/18 04:45:37;;;;;;;3.83;3.15;;;24.30;42.90;;;;;;5037473;28;20037;-73
2023/06/18 04:48:04;;;;;;;3.97;3.05;;;24.30;42.90;;;;;;5053077;28;20128;-73
2023/06/18 04:50:31;;;;;;;4.25;3.25;;;24.30;42.90;;;;;;5037226;28;20047;-73
2023/06/18 04:52:57;;;;;;;4.20;3.13;;;24.20;42.80;;;;;;5036230;28;20140;-74
2023/06/18 04:55:23;;;;;;;4.40;3.20;;;24.20;42.90;;;;;;5036630;28;20029;-73
2023/06/18 04:57:51;;;;;;;4.35;3.53;;;24.20;42.90;;;;;;5037565;28;20054;-74
2023/06/18 05:00:19;;;;;;;3.95;3.13;;;24.20;42.90;;;;;;5037074;28;20037;-73
2023/06/18 05:02:47;;;;;;;4.22;3.05;;;24.20;42.90;;;;;;5036703;28;20025;-74
2023/06/18 05:05:12;;;;;;;4.22;2.97;;;24.20;43.00;;;;;;5036476;28;20037;-73
2023/06/18 05:07:38;;;;;;;4.50;3.42;;;24.20;43.00;;;;;;5052950;28;20035;-73
2023/06/18 05:10:05;;;;;;;4.82;3.20;;;24.20;43.00;;;;;;5036213;28;20448;-73
2023/06/18 05:12:32;;;;;;;6.20;3.78;;;24.20;43.00;;;;;;5054195;28;20029;-75
2023/06/18 05:14:58;;;;;;;4.80;3.38;;;24.20;43.10;;;;;;5052877;28;20032;-73
2023/06/18 05:17:24;;;;;;;4.50;3.53;;;24.20;43.10;;;;;;5036271;28;20571;-74
2023/06/18 05:19:51;;;;;;;4.95;3.45;;;24.20;43.10;;;;;;5036511;28;20040;-73
2023/06/18 05:22:17;;;;;;;4.53;3.13;;;24.20;43.10;;;;;;5036106;28;20021;-73
2023/06/18 05:24:43;;;;;;;4.18;3.05;;;24.20;43.10;;;;;;5036192;28;20037;-74
2023/06/18 05:27:09;;;;;;;4.30;3.22;;;24.20;43.20;;;;;;5052642;28;20108;-73
2023/06/18 05:29:37;;;;;;;5.30;3.70;;;24.20;43.20;;;;;;5036552;28;20035;-73
2023/06/18 05:32:03;;;;;;;4.40;3.33;;;24.10;43.80;;;;;;5036087;28;20025;-74
2023/06/18 05:34:30;;;;;;;4.13;2.95;;;24.20;43.20;;;;;;5036233;28;20056;-73
2023/06/18 05:36:56;;;;;;;4.47;3.35;;;24.20;43.20;;;;;;5052499;28;20497;-73
2023/06/18 05:39:23;;;;;;;4.25;3.28;;;24.20;43.30;;;;;;5035862;28;20029;-73
2023/06/18 05:41:50;;;;;;;4.78;3.40;;;24.10;43.20;;;;;;5053822;28;20446;-74
2023/06/18 05:44:17;;;;;;;5.18;3.65;;;24.10;43.20;;;;;;5052434;28;20179;-77
2023/06/18 05:46:43;;;;;;;4.32;3.35;;;24.20;43.30;;;;;;5053181;28;20119;-73
2023/06/18 05:49:09;;;;;;;4.70;3.70;;;24.10;43.20;;;;;;5053115;28;20032;-76
2023/06/18 05:51:36;;;;;;;4.07;3.13;;;24.10;43.20;;;;;;5051872;28;20076;-73
2023/06/18 05:54:04;;;;;;;4.68;3.20;;;24.20;43.30;;;;;;5020114;28;20052;-75
2023/06/18 05:56:29;;;;;;;4.13;3.40;;;24.10;43.30;;;;;;5019363;28;20041;-73
2023/06/18 05:58:56;;;;;;;4.45;3.70;;;24.20;43.50;;;;;;5052292;28;20132;-73
2023/06/18 06:01:27;;;;;;;4.68;3.63;;;24.10;43.50;;;;;;5052253;28;20119;-74
2023/06/18 06:03:53;;;;;;;5.25;3.67;;;24.10;43.50;;;;;;5036032;28;20061;-74
2023/06/18 06:06:19;;;;;;;4.22;3.30;;;24.10;43.50;;;;;;5019175;28;20040;-74
2023/06/18 06:08:46;;;;;;;4.57;3.72;;;24.10;43.50;;;;;;5052241;28;20029;-74
2023/06/18 06:11:13;;;;;;;4.90;3.47;;;24.10;43.50;;;;;;5052554;28;20029;-74
2023/06/18 06:13:38;;;;;;;4.20;3.30;;;24.10;43.60;;;;;;5051683;28;20033;-74
2023/06/18 06:16:08;;;;;;;4.82;3.58;;;24.10;43.60;;;;;;5036223;28;20127;-74
2023/06/18 06:18:34;;;;;;;5.25;3.97;;;24.10;43.60;;;;;;5052014;28;20041;-74
2023/06/18 06:21:00;;;;;;;4.45;3.45;;;24.10;43.70;;;;;;5036181;28;20040;-78
2023/06/18 06:23:26;;;;;;;5.45;4.00;;;24.10;43.70;;;;;;5035430;28;20033;-80
2023/06/18 06:25:51;;;;;;;6.25;4.68;;;24.10;44.20;;;;;;5019160;28;20359;-74
2023/06/18 06:28:17;;;;;;;6.32;5.40;;;24.10;44.70;;;;;;5052470;28;20090;-74
2023/06/18 06:30:44;;;;;;;6.68;5.60;;;24.20;45.30;;;;;;5035254;28;20037;-74
2023/06/18 06:33:10;;;;;;;7.72;5.82;;;24.20;45.70;;;;;;5052176;28;20090;-74
2023/06/18 06:35:37;;;;;;;8.43;6.45;;;24.20;46.10;;;;;;5036209;28;20478;-74
2023/06/18 06:38:04;;;;;;;8.52;5.60;;;24.20;46.40;;;;;;5051456;28;20037;-74
2023/06/18 06:40:30;;;;;;;6.65;5.50;;;24.20;46.70;;;;;;5035354;28;20044;-74
2023/06/18 06:42:56;;;;;;;6.90;5.88;;;24.20;46.90;;;;;;5036174;28;20079;-75
2023/06/18 06:45:45;;;;;;;6.95;6.00;;;24.30;47.10;;;;;;5050353;28;20416;-73
2023/06/18 06:48:22;;;;;;;7.40;5.80;;;24.30;47.10;;;;;;5052843;28;20492;-75
2023/06/18 06:50:55;;;;;;;7.03;5.75;;;24.30;47.20;;;;;;5037312;28;20060;-72
2023/06/18 06:53:25;;;;;;;9.55;6.25;;;24.30;47.10;;;;;;5019267;28;20132;-73
2023/06/18 06:55:51;;;;;;;7.68;6.20;;;24.30;47.20;;;;;;5035683;28;20068;-71
2023/06/18 06:58:19;;;;;;;7.63;6.07;;;24.40;47.20;;;;;;5052407;28;20362;-72
2023/06/18 07:00:45;;;;;;;6.80;5.95;;;24.40;47.20;;;;;;5053503;28;20060;-72
2023/06/18 07:03:11;;;;;;;7.55;6.25;;;24.40;47.20;;;;;;5051791;28;20041;-71
2023/06/18 07:05:37;;;;;;;7.53;6.00;;;24.40;47.10;;;;;;5051476;28;20025;-71
2023/06/18 07:08:05;;;;;;;7.63;6.03;;;24.40;47.20;;;;;;5052137;28;20078;-71
2023/06/18 07:10:31;;;;;;;7.15;6.20;;;24.50;47.30;;;;;;5051080;28;20037;-71
2023/06/18 07:12:57;;;;;;;8.95;6.22;;;24.50;47.30;;;;;;5038647;28;20033;-72
2023/06/18 07:15:23;;;;;;;7.30;5.97;;;24.50;47.30;;;;;;5054978;28;20025;-74
2023/06/18 07:17:48;;;;;;;7.43;6.47;;;24.60;47.20;;;;;;5054587;28;20028;-73
2023/06/18 07:20:14;;;;;;;7.10;6.03;;;24.60;47.30;;;;;;5054470;28;20059;-71
2023/06/18 07:22:40;;;;;;;9.38;6.20;;;24.60;47.30;;;;;;5055406;28;20390;-71
2023/06/18 07:25:06;;;;;;;7.57;6.18;;;24.60;47.20;;;;;;5054886;28;20496;-71
2023/06/18 07:27:33;;;;;;;6.95;5.93;;;24.70;47.20;;;;;;5055129;28;20040;-71
2023/06/18 07:29:59;;;;;;;7.35;6.45;;;24.70;47.20;;;;;;5055808;28;20386;-75
2023/06/18 07:32:25;;;;;;;8.88;6.70;;;24.80;47.20;;;;;;5055790;28;20021;-73
2023/06/18 07:34:50;;;;;;;9.52;6.13;;;24.80;47.10;;;;;;5055017;28;20033;-72
2023/06/18 07:37:16;;;;;;;7.80;6.25;;;24.90;47.10;;;;;;5055334;28;20378;-72
2023/06/18 07:39:42;;;;;;;7.25;5.57;;;24.90;47.00;;;;;;5054684;28;20395;-72
2023/06/18 07:42:07;;;;;;;8.32;6.60;;;24.90;46.90;;;;;;5038253;28;20040;-72
2023/06/18 07:44:33;;;;;;;7.32;5.68;;;25.00;46.90;;;;;;5055352;28;20029;-73
2023/06/18 07:46:59;;;;;;;9.32;6.28;;;25.00;46.90;;;;;;5056392;28;20394;-74
2023/06/18 07:49:25;;;;;;;7.20;5.43;;;25.10;47.00;;;;;;5022310;28;20022;-75
2023/06/18 07:51:50;;;;;;;6.50;5.43;;;25.10;47.20;;;;;;5055183;28;20056;-74
2023/06/18 07:54:16;;;;;;;7.20;5.53;;;25.20;47.40;;;;;;5055942;28;20040;-73
2023/06/18 07:56:42;;;;;;;7.22;5.30;;;25.20;47.40;;;;;;5039917;28;20029;-74
2023/06/18 07:59:08;;;;;;;6.45;5.05;;;25.30;47.80;;;;;;5021773;28;20037;-73
2023/06/18 08:01:34;;;;;;;6.13;4.68;;;25.30;48.00;;;;;;5055475;28;20490;-74
2023/06/18 08:04:00;;;;;;;5.72;4.70;;;25.40;48.10;;;;;;5055724;28;20123;-74
2023/06/18 08:06:26;;;;;;;6.10;4.75;;;25.40;48.10;;;;;;5038609;28;20065;-72
2023/06/18 08:08:51;;;;;;;6.30;4.60;;;25.50;48.00;;;;;;5038197;28;20086;-73
2023/06/18 08:11:17;;;;;;;6.72;4.30;;;25.50;48.00;;;;;;5055085;28;20033;-73
2023/06/18 08:13:44;;;;;;;6.20;4.20;;;25.60;47.90;;;;;;5055368;28;20044;-74
2023/06/18 08:16:10;;;;;;;5.95;4.38;;;25.60;47.70;;;;;;5055531;28;20477;-73
2023/06/18 08:18:36;;;;;;;6.32;4.55;;;25.70;47.60;;;;;;5038131;28;20163;-73
2023/06/18 08:21:02;;;;;;;6.63;4.82;;;25.70;47.60;;;;;;5037813;28;20032;-74
2023/06/18 08:23:28;;;;;;;6.25;4.65;;;25.70;47.50;;;;;;5036831;28;20035;-73
2023/06/18 08:25:55;;;;;;;5.85;4.40;;;25.70;47.50;;;;;;5054735;28;20521;-74
2023/06/18 08:28:21;;;;;;;5.93;4.93;;;25.80;47.60;;;;;;5055867;28;20025;-73
2023/06/18 08:30:46;;;;;;;5.97;4.50;;;25.80;47.70;;;;;;5037312;28;20074;-73
2023/06/18 08:33:12;;;;;;;5.25;4.13;;;25.80;47.60;;;;;;5037007;28;20465;-75
2023/06/18 08:35:38;;;;;;;6.35;4.32;;;25.90;47.50;;;;;;5037053;28;20104;-73
2023/06/18 08:38:04;;;;;;;5.32;4.18;;;25.90;47.40;;;;;;5037276;28;20470;-73
2023/06/18 08:40:48;;;;;;;5.53;4.47;;;25.90;47.30;;;;;;5053458;28;20037;-73
2023/06/18 08:43:14;;;;;;;5.90;4.23;;;25.90;47.50;;;;;;5055262;28;20094;-73
2023/06/18 08:45:40;;;;;;;5.75;4.43;;;26.00;47.50;;;;;;5053441;28;20116;-73
2023/06/18 08:48:08;;;;;;;6.18;4.88;;;26.00;47.50;;;;;;5039318;28;20033;-74
2023/06/18 08:50:37;;;;;;;6.10;4.40;;;26.10;47.70;;;;;;5054237;28;20105;-73
2023/06/18 08:53:09;;;;;;;5.50;4.53;;;26.10;47.60;;;;;;5055296;28;20053;-73
2023/06/18 08:55:35;;;;;;;5.80;4.35;;;26.10;47.40;;;;;;5056132;28;20086;-73
2023/06/18 08:58:14;;;;;;;5.63;4.43;;;26.20;47.20;;;;;;5053977;28;20037;-73
2023/06/18 09:00:41;;;;;;;6.10;4.35;;;26.20;47.10;;;;;;5037705;28;20418;-73
2023/06/18 09:03:07;;;;;;;5.53;4.55;;;26.30;47.00;;;;;;5053092;28;20472;-73
2023/06/18 09:05:34;;;;;;;5.45;4.57;;;26.30;46.90;;;;;;5054795;28;20029;-75
2023/06/18 09:08:01;;;;;;;6.15;4.50;;;26.30;46.80;;;;;;5037134;28;20409;-73
2023/06/18 09:10:27;;;;;;;5.55;4.72;;;26.30;46.60;;;;;;5054548;28;20037;-73
2023/06/18 09:12:53;;;;;;;5.95;5.00;;;26.40;46.30;;;;;;5021653;28;20037;-74
2023/06/18 09:15:20;;;;;;;6.05;5.13;;;26.50;46.20;;;;;;5036643;28;20117;-73
2023/06/18 09:17:53;;;;;;;6.05;4.68;;;26.50;46.10;;;;;;5054231;28;20127;-74
2023/06/18 09:20:20;;;;;;;6.25;4.88;;;26.60;46.20;;;;;;5054777;28;20033;-74
2023/06/18 09:22:47;;;;;;;5.57;4.75;;;26.60;45.70;;;;;;5038792;28;20029;-74
2023/06/18 09:25:23;;;;;;;5.75;4.82;;;26.70;45.30;;;;;;5055830;28;20071;-75
2023/06/18 09:27:49;;;;;;;6.28;5.05;;;26.80;45.10;;;;;;5052433;28;20056;-73
2023/06/18 09:30:25;;;;;;;6.10;4.85;;;26.80;44.90;;;;;;5053001;28;20504;-77
2023/06/18 09:32:53;;;;;;;5.45;4.82;;;26.90;44.80;;;;;;5054118;28;20136;-75
2023/06/18 09:35:20;;;;;;;5.45;4.28;;;26.90;44.20;;;;;;5052238;28;20116;-74
2023/06/18 09:37:46;;;;;;;5.25;4.25;;;27.00;43.80;;;;;;5052291;28;20474;-75
2023/06/18 09:40:19;;;;;;;5.07;3.95;;;27.10;44.00;;;;;;5052150;28;20029;-74
2023/06/18 09:42:48;;;;;;;6.22;4.30;;;27.10;43.90;;;;;;5035316;28;20021;-74
2023/06/18 09:45:15;;;;;;;5.78;4.30;;;27.20;43.50;;;;;;5052981;28;20132;-75
2023/06/18 09:47:44;;;;;;;5.45;4.18;;;27.30;43.30;;;;;;5036094;28;20020;-73
2023/06/18 09:50:11;;;;;;;5.13;3.90;;;27.40;43.40;;;;;;5053152;28;20037;-74
2023/06/18 09:52:44;;;;;;;4.60;3.80;;;27.50;43.30;;;;;;5053395;28;20049;-74
2023/06/18 09:55:31;;;;;;;4.88;3.97;;;27.50;43.30;;;;;;5054405;28;20033;-76
2023/06/18 09:57:58;;;;;;;6.28;4.30;;;27.60;43.20;;;;;;5036721;28;20020;-75
2023/06/18 10:00:25;;;;;;;4.72;3.60;;;27.70;43.00;;;;;;5037947;28;20131;-75
2023/06/18 10:02:51;;;;;;;5.32;3.88;;;27.70;42.90;;;;;;5056729;28;20035;-74
2023/06/18 10:05:17;;;;;;;5.30;3.92;;;27.90;43.00;;;;;;5040189;28;20021;-76
2023/06/18 10:07:46;;;;;;;4.40;3.65;;;27.90;42.90;;;;;;5054544;28;20017;-75
2023/06/18 10:10:13;;;;;;;5.63;4.10;;;28.00;42.70;;;;;;5037241;28;20132;-83
2023/06/18 10:12:44;;;;;;;4.82;3.75;;;28.00;42.20;;;;;;5054771;28;20575;-76
2023/06/18 10:15:12;;;;;;;5.28;3.83;;;28.10;42.20;;;;;;5055802;28;20112;-76
2023/06/18 10:17:46;;;;;;;4.43;3.40;;;28.10;42.00;;;;;;5054875;28;20512;-76
2023/06/18 10:20:14;;;;;;;6.18;3.85;;;28.20;41.80;;;;;;5036718;28;20032;-75
2023/06/18 10:22:53;;;;;;;5.47;3.80;;;28.20;41.50;;;;;;5052229;28;20064;-77
2023/06/18 10:25:19;;;;;;;4.07;3.28;;;28.30;41.50;;;;;;5052982;28;20021;-77
2023/06/18 10:27:45;;;;;;;6.07;3.63;;;28.40;41.80;;;;;;5018538;28;20029;-74
2023/06/18 10:30:11;;;;;;;4.75;3.60;;;28.40;41.80;;;;;;5052499;28;20044;-74
2023/06/18 10:32:41;;;;;;;5.55;3.90;;;28.40;41.80;;;;;;5052598;28;20040;-75
2023/06/18 10:35:08;;;;;;;4.72;3.72;;;28.50;42.00;;;;;;5052784;28;20121;-72
2023/06/18 10:37:36;;;;;;;5.10;3.38;;;28.50;42.00;;;;;;5052154;28;20037;-75
2023/06/18 10:40:03;;;;;;;4.00;3.17;;;28.60;42.10;;;;;;5052413;28;20033;-71
2023/06/18 10:42:32;;;;;;;3.97;3.30;;;28.60;42.20;;;;;;5051256;28;20037;-73
2023/06/18 10:45:08;;;;;;;4.75;3.58;;;28.70;42.20;;;;;;5035641;28;20033;-77
2023/06/18 10:47:34;;;;;;;4.30;3.05;;;28.70;42.20;;;;;;5055814;28;20063;-78
2023/06/18 10:50:00;;;;;;;4.60;3.38;;;28.70;42.10;;;;;;5055627;28;20150;-77
2023/06/18 10:52:30;;;;;;;4.45;3.42;;;28.80;42.20;;;;;;5055167;28;20127;-77
2023/06/18 10:55:19;;;;;;;3.58;2.97;;;28.80;42.20;;;;;;5056876;28;20029;-74
2023/06/18 10:57:46;;;;;;;4.85;3.13;;;28.90;42.20;;;;;;5056146;28;20036;-74
2023/06/18 11:00:29;;;;;;;3.92;3.08;;;28.90;42.20;;;;;;5039161;28;20044;-74
2023/06/18 11:03:10;;;;;;;5.03;3.20;;;28.90;42.20;;;;;;5055771;28;20047;-74
2023/06/18 11:05:47;;;;;;;4.30;2.72;;;29.00;42.30;;;;;;5057109;28;20029;-74
2023/06/18 11:08:15;;;;;;;4.25;2.90;;;29.00;42.30;;;;;;5055713;28;20056;-73
2023/06/18 11:10:50;;;;;;;3.50;2.90;;;29.10;42.30;;;;;;5056253;28;20068;-74
2023/06/18 11:13:16;;;;;;;;;;;29.00;42.20;;;;;;5057034;28;20037;-77
2023/06/18 11:15:58;;;;;;;2.80;2.20;;;29.10;42.30;;;;;;5057267;28;20334;-75
2023/06/18 11:18:26;;;;;;;2.88;2.53;;;29.10;42.30;;;;;;5054908;28;20037;-74
2023/06/18 11:20:54;;;;;;;3.13;2.55;;;29.10;42.30;;;;;;5038245;28;20037;-73
2023/06/18 11:23:20;;;;;;;3.78;2.65;;;29.10;42.30;;;;;;5056160;28;20021;-73
2023/06/18 11:25:49;;;;;;;3.83;2.67;;;29.10;42.30;;;;;;5054820;28;20025;-74
2023/06/18 11:28:16;;;;;;;3.47;2.80;;;29.10;42.40;;;;;;5056793;28;20120;-74
2023/06/18 11:30:48;;;;;;;3.75;3.00;;;29.20;42.40;;;;;;5054698;28;20037;-74
2023/06/18 11:33:23;;;;;;;3.85;3.08;;;29.20;42.40;;;;;;5055539;28;20060;-73
2023/06/18 11:35:51;;;;;;;3.70;2.80;;;29.20;42.40;;;;;;5056133;28;20036;-74
2023/06/18 11:38:18;;;;;;;3.28;2.70;;;29.20;42.50;;;;;;5054630;28;20060;-75
2023/06/18 11:40:51;;;;;;;3.70;2.80;;;29.20;42.40;;;;;;5056022;28;20045;-75
2023/06/18 11:43:18;;;;;;;3.20;2.63;;;29.20;42.40;;;;;;5056036;28;20090;-74
2023/06/18 11:45:52;;;;;;;3.92;3.00;;;29.20;42.40;;;;;;5054397;28;20428;-75
2023/06/18 11:48:21;;;;;;;;;;;29.20;42.50;;;;;;5056130;28;20055;-74
2023/06/18 11:50:54;;;;;;;3.13;2.35;;;29.20;42.40;;;;;;5055788;28;19920;-73
2023/06/18 11:53:21;;;;;;;3.55;2.67;;;29.30;42.50;;;;;;5054579;28;20547;-73
2023/06/18 11:55:47;;;;;;;3.35;2.72;;;29.20;42.50;;;;;;5054590;28;20033;-75
2023/06/18 11:58:15;;;;;;;3.30;2.58;;;29.20;42.50;;;;;;5054460;28;20489;-74
2023/06/18 12:00:42;;;;;;;3.30;2.60;;;29.20;42.70;;;;;;5054303;28;20114;-74
2023/06/18 12:03:07;;;;;;;3.40;2.70;;;29.20;42.70;;;;;;5053910;28;20048;-74
2023/06/18 12:05:37;;;;;;;3.03;2.53;;;29.20;42.70;;;;;;5054042;28;20041;-74
2023/06/18 12:08:11;;;;;;;2.90;2.40;;;29.30;42.80;;;;;;5054018;28;20044;-74
2023/06/18 12:10:44;;;;;;;4.30;2.95;;;29.30;42.90;;;;;;5055392;28;20037;-74
2023/06/18 12:13:30;;;;;;;3.78;2.88;;;29.30;42.90;;;;;;5037843;28;20133;-74
2023/06/18 12:16:09;;;;;;;2.92;2.20;;;29.30;42.90;;;;;;5054790;28;20044;-73
2023/06/18 12:18:39;;;;;;;3.42;2.72;;;29.30;42.90;;;;;;5054393;28;20163;-74
2023/06/18 12:21:06;;;;;;;4.88;3.00;;;29.20;42.80;;;;;;5053794;28;20029;-74
2023/06/18 12:23:31;;;;;;;3.88;2.90;;;29.30;42.80;;;;;;5053547;28;20489;-73
2023/06/18 12:25:58;;;;;;;3.90;2.80;;;29.30;42.90;;;;;;5021378;28;20057;-73
2023/06/18 12:28:24;;;;;;;4.15;3.15;;;29.30;42.80;;;;;;5054318;28;20025;-74
2023/06/18 12:30:53;;;;;;;4.55;3.00;;;29.30;42.90;;;;;;5054591;28;20041;-74
2023/06/18 12:33:19;;;;;;;3.55;2.67;;;29.30;42.90;;;;;;5053530;28;20083;-73
2023/06/18 12:35:56;;;;;;;3.60;3.08;;;29.30;42.90;;;;;;5054060;28;20029;-75
2023/06/18 12:38:22;;;;;;;4.55;3.15;;;29.40;43.00;;;;;;5054538;28;20029;-77
2023/06/18 12:40:51;;;;;;;4.05;3.10;;;29.30;42.80;;;;;;5036785;28;20108;-74
2023/06/18 12:43:18;;;;;;;3.42;2.85;;;29.40;42.90;;;;;;5054369;28;20094;-74
2023/06/18 12:45:48;;;;;;;4.20;3.10;;;29.40;42.90;;;;;;5054673;28;20508;-74
2023/06/18 12:48:20;;;;;;;4.05;3.20;;;29.30;42.80;;;;;;5054808;28;20025;-74
2023/06/18 12:50:49;;;;;;;3.53;3.00;;;29.40;42.90;;;;;;5054492;28;20029;-74
2023/06/18 12:53:20;;;;;;;5.40;3.15;;;29.40;42.90;;;;;;5054609;28;20136;-74